createdAt,value
2023-03-14T00:00:56.180Z,98852.34
2023-03-14T00:03:23.877Z,98849.00
2023-03-14T00:05:51.570Z,98848.94
2023-03-14T00:08:20.544Z,98834.16
2023-03-14T00:10:48.236Z,98844.50
2023-03-14T00:13:15.861Z,98831.38
2023-03-14T00:15:45.030Z,98818.72
2023-03-14T00:18:12.673Z,98811.00
2023-03-14T00:20:40.346Z,98805.63
2023-03-14T00:23:08.067Z,98798.53
2023-03-14T00:25:36.802Z,98803.03
2023-03-14T00:28:04.807Z,98797.75
2023-03-14T00:30:32.459Z,98810.19
2023-03-14T00:33:01.482Z,98815.38
2023-03-14T00:35:29.144Z,98816.03
2023-03-14T00:37:56.833Z,98828.66
2023-03-14T00:40:24.560Z,98834.69
2023-03-14T00:42:52.250Z,98837.16
2023-03-14T00:45:19.918Z,98832.59
2023-03-14T00:47:47.618Z,98833.16
2023-03-14T00:50:16.981Z,98842.16
2023-03-14T00:52:44.731Z,98822.88
2023-03-14T00:55:12.444Z,98842.72
2023-03-14T00:57:40.158Z,98839.09
2023-03-14T01:00:12.415Z,98839.16
2023-03-14T01:02:40.321Z,98850.34
2023-03-14T01:05:11.218Z,98852.88
2023-03-14T01:07:40.311Z,98846.06
2023-03-14T01:10:09.618Z,98845.63
2023-03-14T01:12:37.392Z,98848.34
2023-03-14T01:15:05.831Z,98845.00
2023-03-14T01:17:33.796Z,98851.34
2023-03-14T01:20:01.946Z,98839.91
2023-03-14T01:22:29.719Z,98853.72
2023-03-14T01:24:58.799Z,98848.59
2023-03-14T01:27:26.492Z,98847.69
2023-03-14T01:29:54.227Z,98850.34
2023-03-14T01:32:22.447Z,98845.06
2023-03-14T01:34:50.148Z,98851.44
2023-03-14T01:37:17.816Z,98851.56
2023-03-14T01:39:45.552Z,98848.41
2023-03-14T01:42:14.605Z,98837.66
2023-03-14T01:44:50.649Z,98833.91
2023-03-14T01:47:18.536Z,98843.00
2023-03-14T01:49:48.769Z,98827.28
2023-03-14T01:52:21.121Z,98822.94
2023-03-14T01:54:53.453Z,98834.84
2023-03-14T01:57:27.607Z,98820.13
2023-03-14T02:00:00.304Z,98831.78
2023-03-14T02:02:29.603Z,98825.53
2023-03-14T02:04:58.811Z,98821.06
2023-03-14T02:07:31.678Z,98824.06
2023-03-14T02:10:00.867Z,98836.97
2023-03-14T02:12:30.180Z,98835.22
2023-03-14T02:14:57.858Z,98825.66
2023-03-14T02:17:26.472Z,98819.41
2023-03-14T02:20:12.890Z,98809.41
2023-03-14T02:22:43.981Z,98814.72
2023-03-14T02:25:16.560Z,98817.56
2023-03-14T02:27:46.150Z,98821.06
2023-03-14T02:30:17.198Z,98821.94
2023-03-14T02:32:48.684Z,98820.19
2023-03-14T02:35:20.656Z,98822.84
2023-03-14T02:37:51.080Z,98824.00
2023-03-14T02:40:19.013Z,98832.00
2023-03-14T02:42:48.146Z,98830.44
2023-03-14T02:45:43.399Z,98822.59
2023-03-14T02:48:16.312Z,98835.78
2023-03-14T02:50:45.431Z,98823.34
2023-03-14T02:53:16.087Z,98833.28
2023-03-14T02:55:48.226Z,98824.25
2023-03-14T02:58:17.660Z,98826.00
2023-03-14T03:00:45.934Z,98827.69
2023-03-14T03:03:14.037Z,98817.91
2023-03-14T03:05:41.771Z,98830.28
2023-03-14T03:08:10.463Z,98818.66
2023-03-14T03:10:38.684Z,98816.66
2023-03-14T03:13:06.396Z,98810.38
2023-03-14T03:15:35.563Z,98807.72
2023-03-14T03:18:03.262Z,98804.97
2023-03-14T03:20:31.063Z,98799.56
2023-03-14T03:22:58.749Z,98798.63
2023-03-14T03:25:26.472Z,98801.28
2023-03-14T03:27:54.741Z,98801.16
2023-03-14T03:30:22.964Z,98792.94
2023-03-14T03:32:52.099Z,98788.50
2023-03-14T03:35:19.985Z,98781.31
2023-03-14T03:37:47.656Z,98779.63
2023-03-14T03:40:15.451Z,98767.03
2023-03-14T03:42:43.148Z,98773.53
2023-03-14T03:45:11.756Z,98763.59
2023-03-14T03:47:39.410Z,98770.59
2023-03-14T03:50:09.982Z,98772.47
2023-03-14T03:52:37.654Z,98782.22
2023-03-14T03:55:06.007Z,98771.69
2023-03-14T03:57:33.718Z,98774.50
2023-03-14T04:00:01.363Z,98767.31
2023-03-14T04:02:29.046Z,98761.25
2023-03-14T04:04:57.017Z,98767.59
2023-03-14T04:07:26.309Z,98766.66
2023-03-14T04:09:54.919Z,98779.22
2023-03-14T04:12:22.626Z,98777.41
2023-03-14T04:14:50.301Z,98775.47
2023-03-14T04:17:17.975Z,98770.22
2023-03-14T04:19:45.584Z,98776.19
2023-03-14T04:22:13.241Z,98760.44
2023-03-14T04:24:42.249Z,98755.03
2023-03-14T04:27:09.949Z,98755.03
2023-03-14T04:29:37.558Z,98755.84
2023-03-14T04:32:05.546Z,98743.63
2023-03-14T04:34:33.287Z,98764.25
2023-03-14T04:37:01.054Z,98759.13
2023-03-14T04:39:28.776Z,98755.75
2023-03-14T04:41:57.739Z,98759.47
2023-03-14T04:44:25.459Z,98755.03
2023-03-14T04:46:53.195Z,98758.84
2023-03-14T04:49:20.925Z,98738.94
2023-03-14T04:51:48.607Z,98737.19
2023-03-14T04:54:16.268Z,98731.09
2023-03-14T04:56:43.921Z,98738.38
2023-03-14T04:59:12.918Z,98750.28
2023-03-14T05:01:42.111Z,98753.19
2023-03-14T05:04:09.883Z,98755.91
2023-03-14T05:06:37.557Z,98736.63
2023-03-14T05:09:06.199Z,98736.84
2023-03-14T05:11:34.583Z,98739.59
2023-03-14T05:14:02.214Z,98745.06
2023-03-14T05:16:31.276Z,98744.28
2023-03-14T05:18:58.988Z,98732.78
2023-03-14T05:21:26.600Z,98727.44
2023-03-14T05:23:54.270Z,98725.81
2023-03-14T05:26:21.902Z,98724.25
2023-03-14T05:28:49.546Z,98722.63
2023-03-14T05:31:17.211Z,98720.94
2023-03-14T05:33:46.253Z,98720.22
2023-03-14T05:36:14.178Z,98713.22
2023-03-14T05:38:41.836Z,98715.78
2023-03-14T05:41:09.729Z,98705.78
2023-03-14T05:43:38.156Z,98716.50
2023-03-14T05:46:06.208Z,98713.00
2023-03-14T05:48:33.866Z,98715.66
2023-03-14T05:51:03.068Z,98711.09
2023-03-14T05:53:31.246Z,98705.03
2023-03-14T05:55:59.460Z,98705.03
2023-03-14T05:58:27.234Z,98697.84
2023-03-14T06:00:54.841Z,98695.97
2023-03-14T06:03:22.644Z,98705.53
2023-03-14T06:05:52.543Z,98694.88
2023-03-14T06:08:21.667Z,98695.66
2023-03-14T06:10:49.427Z,98702.59
2023-03-14T06:13:17.337Z,98699.00
2023-03-14T06:15:45.446Z,98695.47
2023-03-14T06:18:13.275Z,98701.41
2023-03-14T06:20:41.369Z,98705.84
2023-03-14T06:23:09.517Z,98704.22
2023-03-14T06:25:39.411Z,98703.28
2023-03-14T06:28:07.117Z,98707.69
2023-03-14T06:30:34.836Z,98701.34
2023-03-14T06:33:02.505Z,98703.28
2023-03-14T06:35:30.240Z,98706.69
2023-03-14T06:37:57.990Z,98700.38
2023-03-14T06:40:25.648Z,98711.84
2023-03-14T06:42:54.692Z,98709.22
2023-03-14T06:45:22.338Z,98692.22
2023-03-14T06:47:50.042Z,98699.38
2023-03-14T06:50:17.916Z,98710.78
2023-03-14T06:52:48.884Z,98701.84
2023-03-14T06:55:17.659Z,98702.63
2023-03-14T06:57:45.959Z,98701.50
2023-03-14T07:00:16.277Z,98699.50
2023-03-14T07:02:43.898Z,98709.84
2023-03-14T07:05:12.342Z,98713.38
2023-03-14T07:07:40.311Z,98722.38
2023-03-14T07:10:09.756Z,98715.13
2023-03-14T07:12:37.748Z,98719.63
2023-03-14T07:15:17.584Z,98717.94
2023-03-14T07:17:55.017Z,98726.94
2023-03-14T07:20:22.737Z,98721.59
2023-03-14T07:22:50.655Z,98729.56
2023-03-14T07:25:19.131Z,98729.19
2023-03-14T07:27:47.667Z,98729.25
2023-03-14T07:30:16.424Z,98726.66
2023-03-14T07:32:44.086Z,98725.50
2023-03-14T07:35:13.178Z,98731.44
2023-03-14T07:37:40.872Z,98726.56
2023-03-14T07:40:11.520Z,98733.31
2023-03-14T07:42:39.283Z,98735.97
2023-03-14T07:45:08.405Z,98738.66
2023-03-14T07:47:36.115Z,98736.97
2023-03-14T07:50:04.382Z,98737.94
2023-03-14T07:52:33.500Z,98744.06
2023-03-14T07:55:01.366Z,98749.34
2023-03-14T07:57:29.008Z,98747.59
2023-03-14T07:59:56.697Z,98756.16
2023-03-14T08:02:25.072Z,98752.41
2023-03-14T08:04:52.811Z,98761.28
2023-03-14T08:07:20.554Z,98760.22
2023-03-14T08:09:49.625Z,98760.41
2023-03-14T08:12:17.979Z,98751.00
2023-03-14T08:14:45.643Z,98755.75
2023-03-14T08:17:13.295Z,98754.38
2023-03-14T08:19:42.802Z,98753.41
2023-03-14T08:22:10.439Z,98762.97
2023-03-14T08:24:38.104Z,98759.66
2023-03-14T08:27:08.820Z,98753.63
2023-03-14T08:29:38.116Z,98762.59
2023-03-14T08:32:06.331Z,98761.88
2023-03-14T08:34:35.419Z,98764.75
2023-03-14T08:37:06.568Z,98763.94
2023-03-14T08:39:38.860Z,98765.97
2023-03-14T08:42:07.998Z,98764.06
2023-03-14T08:44:35.717Z,98769.22
2023-03-14T08:47:03.450Z,98773.44
2023-03-14T08:49:31.391Z,98776.94
2023-03-14T08:51:59.717Z,98788.56
2023-03-14T08:54:27.525Z,98784.06
2023-03-14T08:56:55.271Z,98789.16
2023-03-14T08:59:24.441Z,98791.03
2023-03-14T09:01:52.233Z,98838.69
2023-03-14T09:04:20.259Z,98893.47
2023-03-14T09:06:47.973Z,98882.56
2023-03-14T09:09:15.761Z,98887.16
2023-03-14T09:11:43.450Z,98908.53
2023-03-14T09:14:11.101Z,98912.56
2023-03-14T09:16:40.183Z,98921.13
2023-03-14T09:19:07.968Z,98926.00
2023-03-14T09:21:35.624Z,98933.25
2023-03-14T09:24:03.685Z,98938.16
2023-03-14T09:26:31.348Z,98952.22
2023-03-14T09:28:59.105Z,98954.66
2023-03-14T09:31:26.825Z,98968.91
2023-03-14T09:33:55.893Z,98979.13
2023-03-14T09:36:23.655Z,98992.22
2023-03-14T09:38:51.300Z,99004.88
2023-03-14T09:41:23.680Z,99015.53
2023-03-14T09:43:54.786Z,99022.50
2023-03-14T09:46:23.403Z,99037.44
2023-03-14T09:48:51.099Z,99047.31
2023-03-14T09:51:24.509Z,99063.59
2023-03-14T09:53:52.989Z,99072.78
2023-03-14T09:56:22.768Z,99082.72
2023-03-14T09:58:54.588Z,99088.53
2023-03-14T10:01:26.526Z,99098.13
2023-03-14T10:03:57.782Z,99113.25
2023-03-14T10:06:30.269Z,99107.44
2023-03-14T10:08:58.594Z,99124.19
2023-03-14T10:11:26.526Z,99129.03
2023-03-14T10:14:07.472Z,99158.75
2023-03-14T10:16:37.286Z,99182.00
2023-03-14T10:19:07.771Z,99172.06
2023-03-14T10:21:41.121Z,99198.19
2023-03-14T10:24:20.917Z,99203.59
2023-03-14T10:26:52.016Z,99250.03
2023-03-14T10:29:19.815Z,99239.88
2023-03-14T10:31:54.821Z,99260.47
2023-03-14T10:34:27.673Z,99266.88
2023-03-14T10:36:58.900Z,99304.63
2023-03-14T10:39:31.202Z,99300.44
2023-03-14T10:42:07.161Z,99312.38
2023-03-14T10:44:36.706Z,99323.03
2023-03-14T10:47:06.630Z,99354.94
2023-03-14T10:49:38.034Z,99374.97
2023-03-14T10:52:20.757Z,99374.03
2023-03-14T10:54:50.534Z,99382.56
2023-03-14T10:57:21.499Z,99385.06
2023-03-14T10:59:49.762Z,99399.94
2023-03-14T11:02:33.323Z,99409.25
2023-03-14T11:05:10.121Z,99429.75
2023-03-14T11:07:41.749Z,99426.13
2023-03-14T11:10:20.940Z,99436.78
2023-03-14T11:13:07.724Z,99445.44
2023-03-14T11:15:38.778Z,99452.41
2023-03-14T11:18:33.301Z,99477.78
2023-03-14T11:21:10.046Z,99484.19
2023-03-14T11:23:48.827Z,99498.19
2023-03-14T11:26:28.436Z,99499.72
2023-03-14T11:29:00.200Z,99524.34
2023-03-14T11:31:29.801Z,99531.00
2023-03-14T11:34:07.681Z,99528.94
2023-03-14T11:36:40.964Z,99541.38
2023-03-14T11:39:15.719Z,99556.25
2023-03-14T11:41:47.430Z,99577.34
2023-03-14T11:44:21.240Z,99564.53
2023-03-14T11:46:54.047Z,99583.97
2023-03-14T11:49:32.307Z,99596.72
2023-03-14T11:52:03.932Z,99585.19
2023-03-14T11:54:43.834Z,99593.59
2023-03-14T11:57:16.182Z,99599.66
2023-03-14T11:59:52.377Z,99601.59
2023-03-14T12:02:28.583Z,99618.22
2023-03-14T12:05:26.081Z,99612.47
2023-03-14T12:08:20.735Z,99632.50
2023-03-14T12:10:53.636Z,99634.97
2023-03-14T12:13:22.081Z,99645.66
2023-03-14T12:15:55.911Z,99641.19
2023-03-14T12:18:30.032Z,99647.09
2023-03-14T12:21:00.698Z,99662.28
2023-03-14T12:23:30.065Z,99689.84
2023-03-14T12:26:18.105Z,99690.94
2023-03-14T12:28:51.248Z,99695.97
2023-03-14T12:31:38.755Z,99719.88
2023-03-14T12:34:33.349Z,99727.44
2023-03-14T12:37:08.309Z,99735.41
2023-03-14T12:39:45.194Z,99750.31
2023-03-14T12:42:17.282Z,99744.94
2023-03-14T12:44:48.301Z,99754.25
2023-03-14T12:47:52.690Z,99760.81
2023-03-14T12:50:26.560Z,99757.09
2023-03-14T12:53:39.955Z,99757.78
2023-03-14T12:56:14.392Z,99788.03
2023-03-14T12:58:49.861Z,99799.72
2023-03-14T13:01:19.918Z,99823.22
2023-03-14T13:03:51.815Z,99841.88
2023-03-14T13:07:01.092Z,99832.19
2023-03-14T13:09:53.964Z,99833.78
2023-03-14T13:12:25.876Z,99843.50
2023-03-14T13:14:55.819Z,99847.72
2023-03-14T13:17:36.248Z,99855.81
2023-03-14T13:20:11.996Z,99868.09
2023-03-14T13:22:39.782Z,99868.94
2023-03-14T13:25:11.564Z,99863.25
2023-03-14T13:27:39.955Z,99877.19
2023-03-14T13:30:17.848Z,99873.47
2023-03-14T13:32:48.612Z,99891.16
2023-03-14T13:35:18.542Z,99885.13
2023-03-14T13:37:46.440Z,99884.94
2023-03-14T13:40:28.214Z,99895.97
2023-03-14T13:43:08.262Z,99894.13
2023-03-14T13:45:47.581Z,99892.28
2023-03-14T13:48:17.429Z,99898.69
2023-03-14T13:50:53.912Z,99913.56
2023-03-14T13:53:23.731Z,99917.59
2023-03-14T13:55:52.173Z,99923.97
2023-03-14T13:58:26.588Z,99940.69
2023-03-14T14:01:02.189Z,99928.28
2023-03-14T14:03:32.242Z,99950.44
2023-03-14T14:06:00.425Z,99961.28
2023-03-14T14:08:28.920Z,99962.63
2023-03-14T14:11:02.075Z,99971.56
2023-03-14T14:13:35.862Z,99980.59
2023-03-14T14:16:06.162Z,99974.53
2023-03-14T14:18:35.662Z,99991.94
2023-03-14T14:21:04.819Z,99994.41
2023-03-14T14:23:36.696Z,100002.09
2023-03-14T14:26:09.169Z,100016.59
2023-03-14T14:28:39.345Z,100006.47
2023-03-14T14:31:22.513Z,100014.47
2023-03-14T14:33:57.034Z,100026.22
2023-03-14T14:36:27.903Z,100023.44
2023-03-14T14:38:59.574Z,100032.09
2023-03-14T14:41:32.939Z,100056.97
2023-03-14T14:44:01.958Z,100053.34
2023-03-14T14:46:34.136Z,100058.97
2023-03-14T14:49:06.563Z,100062.59
2023-03-14T14:51:35.977Z,100060.84
2023-03-14T14:54:12.713Z,100059.84
2023-03-14T14:56:41.052Z,100074.84
2023-03-14T14:59:22.907Z,100081.91
2023-03-14T15:01:52.621Z,100085.47
2023-03-14T15:04:20.417Z,100096.19
2023-03-14T15:06:51.035Z,100099.81
2023-03-14T15:09:19.015Z,100112.38
2023-03-14T15:11:46.915Z,100118.56
2023-03-14T15:14:14.624Z,100141.81
2023-03-14T15:16:44.959Z,100142.72
2023-03-14T15:19:24.714Z,100173.13
2023-03-14T15:21:53.468Z,100172.00
2023-03-14T15:24:21.318Z,100164.19
2023-03-14T15:26:49.056Z,100173.88
2023-03-14T15:29:16.720Z,100175.53
2023-03-14T15:31:46.003Z,100176.56
2023-03-14T15:34:15.890Z,100183.56
2023-03-14T15:36:43.667Z,100177.50
2023-03-14T15:39:12.880Z,100186.25
2023-03-14T15:41:40.710Z,100191.69
2023-03-14T15:44:08.533Z,100215.78
2023-03-14T15:46:36.512Z,100196.19
2023-03-14T15:49:04.528Z,100200.50
2023-03-14T15:51:34.229Z,100215.56
2023-03-14T15:54:01.860Z,100211.06
2023-03-14T15:56:31.919Z,100229.75
2023-03-14T15:59:00.014Z,100240.38
2023-03-14T16:01:27.827Z,100249.41
2023-03-14T16:03:56.048Z,100264.44
2023-03-14T16:06:23.730Z,100266.22
2023-03-14T16:08:52.911Z,100265.28
2023-03-14T16:11:22.762Z,100268.81
2023-03-14T16:13:51.164Z,100275.94
2023-03-14T16:16:19.182Z,100286.56
2023-03-14T16:18:46.985Z,100292.03
2023-03-14T16:21:16.599Z,100302.72
2023-03-14T16:23:44.458Z,100315.16
2023-03-14T16:26:15.640Z,100313.34
2023-03-14T16:28:43.751Z,100321.47
2023-03-14T16:31:13.348Z,100331.22
2023-03-14T16:33:41.473Z,100334.78
2023-03-14T16:36:12.191Z,100341.94
2023-03-14T16:38:41.998Z,100342.94
2023-03-14T16:41:14.034Z,100354.47
2023-03-14T16:43:42.181Z,100363.28
2023-03-14T16:46:14.021Z,100371.28
2023-03-14T16:48:41.750Z,100378.44
2023-03-14T16:51:09.681Z,100383.78
2023-03-14T16:53:37.778Z,100391.75
2023-03-14T16:56:05.800Z,100395.34
2023-03-14T16:58:34.839Z,100399.78
2023-03-14T17:01:10.560Z,100408.69
2023-03-14T17:03:39.659Z,100419.34
2023-03-14T17:06:08.462Z,100420.25
2023-03-14T17:08:36.202Z,100422.91
2023-03-14T17:11:03.973Z,100434.41
2023-03-14T17:13:31.702Z,100440.63
2023-03-14T17:16:02.470Z,100446.84
2023-03-14T17:18:33.741Z,100460.16
2023-03-14T17:21:02.611Z,100455.72
2023-03-14T17:23:32.630Z,100459.22
2023-03-14T17:26:00.679Z,100463.69
2023-03-14T17:28:28.765Z,100480.53
2023-03-14T17:31:05.338Z,100491.16
2023-03-14T17:33:33.158Z,100482.28
2023-03-14T17:36:01.050Z,100496.50
2023-03-14T17:38:28.947Z,100499.13
2023-03-14T17:40:56.711Z,100502.69
2023-03-14T17:43:24.396Z,100508.00
2023-03-14T17:45:58.533Z,100517.75
2023-03-14T17:48:28.052Z,100528.38
2023-03-14T17:50:58.052Z,100536.34
2023-03-14T17:53:27.857Z,100551.41
2023-03-14T17:55:55.551Z,100562.91
2023-03-14T17:58:23.606Z,100573.56
2023-03-14T18:00:51.383Z,100574.44
2023-03-14T18:03:19.146Z,100582.44
2023-03-14T18:05:48.416Z,100585.97
2023-03-14T18:08:16.934Z,100583.34
2023-03-14T18:10:44.691Z,100590.41
2023-03-14T18:13:13.113Z,100591.31
2023-03-14T18:15:40.922Z,100593.97
2023-03-14T18:18:08.749Z,100610.75
2023-03-14T18:20:36.573Z,100615.19
2023-03-14T18:23:07.012Z,100618.72
2023-03-14T18:25:34.732Z,100620.50
2023-03-14T18:28:02.420Z,100624.03
2023-03-14T18:30:30.126Z,100625.78
2023-03-14T18:32:57.914Z,100631.13
2023-03-14T18:35:25.704Z,100634.66
2023-03-14T18:37:53.391Z,100639.06
2023-03-14T18:40:22.521Z,100645.22
2023-03-14T18:42:50.198Z,100640.78
2023-03-14T18:45:29.555Z,100653.19
2023-03-14T18:47:58.044Z,100656.72
2023-03-14T18:50:25.724Z,100662.91
2023-03-14T18:52:53.816Z,100665.59
2023-03-14T18:55:22.943Z,100666.50
2023-03-14T18:57:50.645Z,100678.91
2023-03-14T19:00:20.312Z,100682.44
2023-03-14T19:02:48.113Z,100693.97
2023-03-14T19:05:16.109Z,100700.16
2023-03-14T19:07:43.816Z,100694.84
2023-03-14T19:10:12.650Z,100705.47
2023-03-14T19:12:41.787Z,100714.38
2023-03-14T19:15:11.882Z,100714.38
2023-03-14T19:17:39.636Z,100710.81
2023-03-14T19:20:08.804Z,100715.25
2023-03-14T19:22:36.574Z,100717.03
2023-03-14T19:25:06.208Z,100726.72
2023-03-14T19:27:34.390Z,100734.69
2023-03-14T19:30:03.629Z,100736.41
2023-03-14T19:32:31.356Z,100730.22
2023-03-14T19:34:59.119Z,100748.81
2023-03-14T19:37:26.942Z,100742.56
2023-03-14T19:39:54.639Z,100744.34
2023-03-14T19:42:22.439Z,100738.97
2023-03-14T19:44:50.155Z,100744.28
2023-03-14T19:47:19.269Z,100758.41
2023-03-14T19:49:46.998Z,100764.63
2023-03-14T19:52:14.885Z,100762.72
2023-03-14T19:54:43.012Z,100768.00
2023-03-14T19:57:10.707Z,100782.13
2023-03-14T19:59:38.427Z,100780.34
2023-03-14T20:02:06.335Z,100779.44
2023-03-14T20:04:36.008Z,100772.28
2023-03-14T20:07:04.877Z,100779.41
2023-03-14T20:09:32.957Z,100791.75
2023-03-14T20:12:01.356Z,100791.72
2023-03-14T20:14:29.112Z,100801.38
2023-03-14T20:16:56.903Z,100801.38
2023-03-14T20:19:24.679Z,100806.69
2023-03-14T20:21:53.719Z,100806.63
2023-03-14T20:24:21.789Z,100809.28
2023-03-14T20:26:49.649Z,100818.06
2023-03-14T20:29:17.371Z,100818.06
2023-03-14T20:31:45.131Z,100818.03
2023-03-14T20:34:12.851Z,100818.88
2023-03-14T20:36:40.517Z,100817.09
2023-03-14T20:39:10.364Z,100825.88
2023-03-14T20:41:41.925Z,100817.91
2023-03-14T20:44:11.300Z,100822.34
2023-03-14T20:46:43.349Z,100823.19
2023-03-14T20:49:11.405Z,100823.19
2023-03-14T20:51:39.176Z,100836.41
2023-03-14T20:54:08.895Z,100839.03
2023-03-14T20:56:38.282Z,100832.75
2023-03-14T20:59:06.106Z,100836.22
2023-03-14T21:01:33.895Z,100847.66
2023-03-14T21:04:01.642Z,100843.25
2023-03-14T21:06:29.451Z,100843.25
2023-03-14T21:08:57.132Z,100844.09
2023-03-14T21:11:24.912Z,100837.88
2023-03-14T21:13:53.944Z,100838.75
2023-03-14T21:16:21.806Z,100840.44
2023-03-14T21:18:49.563Z,100841.25
2023-03-14T21:21:17.246Z,100845.63
2023-03-14T21:23:44.989Z,100851.78
2023-03-14T21:26:12.681Z,100856.16
2023-03-14T21:28:40.367Z,100855.22
2023-03-14T21:31:11.797Z,100865.81
2023-03-14T21:33:40.403Z,100857.88
2023-03-14T21:36:08.919Z,100871.16
2023-03-14T21:38:36.682Z,100863.16
2023-03-14T21:41:06.765Z,100867.50
2023-03-14T21:43:35.038Z,100867.50
2023-03-14T21:46:02.960Z,100879.84
2023-03-14T21:48:32.151Z,100870.97
2023-03-14T21:50:59.831Z,100873.59
2023-03-14T21:53:30.080Z,100868.34
2023-03-14T21:55:58.704Z,100878.16
2023-03-14T21:58:26.904Z,100874.03
2023-03-14T22:00:55.336Z,100870.59
2023-03-14T22:03:23.819Z,100871.53
2023-03-14T22:05:53.235Z,100866.31
2023-03-14T22:08:22.530Z,100864.50
2023-03-14T22:10:52.717Z,100853.03
2023-03-14T22:13:24.745Z,100852.97
2023-03-14T22:15:52.597Z,100859.19
2023-03-14T22:18:23.479Z,100860.06
2023-03-14T22:20:52.564Z,100863.63
2023-03-14T22:23:20.317Z,100869.88
2023-03-14T22:25:49.562Z,100875.16
2023-03-14T22:28:18.600Z,100869.88
2023-03-14T22:30:47.916Z,100877.84
2023-03-14T22:33:15.659Z,100882.25
2023-03-14T22:35:43.445Z,100882.25
2023-03-14T22:38:12.606Z,100879.69
2023-03-14T22:40:40.306Z,100885.03
2023-03-14T22:43:07.970Z,100882.38
2023-03-14T22:45:35.666Z,100892.09
2023-03-14T22:48:03.412Z,100887.59
2023-03-14T22:50:31.153Z,100887.59
2023-03-14T22:52:59.294Z,100893.88
2023-03-14T22:55:28.393Z,100892.88
2023-03-14T22:57:57.651Z,100888.44
2023-03-14T23:00:26.920Z,100889.38
2023-03-14T23:02:54.982Z,100891.09
2023-03-14T23:05:23.066Z,100889.38
2023-03-14T23:07:50.788Z,100883.28
2023-03-14T23:10:18.659Z,100886.81
2023-03-14T23:12:47.797Z,100887.72
2023-03-14T23:15:16.705Z,100887.69
2023-03-14T23:17:45.272Z,100885.88
2023-03-14T23:20:14.136Z,100893.00
2023-03-14T23:22:41.791Z,100890.34
2023-03-14T23:25:10.925Z,100941.56
2023-03-14T23:27:38.765Z,100947.34
2023-03-14T23:30:09.277Z,100928.66
2023-03-14T23:32:36.973Z,100940.16
2023-03-14T23:35:04.930Z,100937.50
2023-03-14T23:37:33.677Z,100933.19
2023-03-14T23:40:01.420Z,100923.50
2023-03-14T23:42:29.076Z,100928.00
2023-03-14T23:44:56.706Z,100926.31
2023-03-14T23:47:26.145Z,100937.84
2023-03-14T23:49:53.798Z,100940.59
2023-03-14T23:52:21.479Z,100941.63
2023-03-14T23:54:49.245Z,100954.91
2023-03-14T23:57:17.053Z,100947.81
2023-03-14T23:59:45.175Z,100949.59
